Faina, Brazil
Current Conditions -  °F | °C
As of 7:00 AM on Wednesday 22 Oct 2014 (Local Time) from SBAN Reporting Station
Clear Clear  
Wind Chill: 64°   Ceiling: Unl
Heat Index: 64°   Visibility: 6mi
Dew Point: 57°   Wind: 6mph
Humidity: 77%   Direction: 30°NNE
Pressure: 30.06"   Gusts: NA
Location:  15.45°S, 50.36°W
Report Text: SBAN 220900Z 03005KT CAVOK 18/14 Q1018
Loading
Personal Weather Stations






























Interactive Weather Map
Tropical Storm Tracking
New forecast layout! Learn more

10-Day Weather Forecast

Advertisements
Track Severe Weather on mobile